sensor_id;sensor_type;location;lat;lon;timestamp;P1;durP1;ratioP1;P2;durP2;ratioP2
45344;SDS011;31078;48.304;11.896;2023-05-10T00:00:45;8.75;;;2.25;;
45344;SDS011;31078;48.304;11.896;2023-05-10T00:03:12;6.15;;;2.05;;
45344;SDS011;31078;48.304;11.896;2023-05-10T00:05:38;5.40;;;1.83;;
45344;SDS011;31078;48.304;11.896;2023-05-10T00:08:06;6.50;;;2.15;;
45344;SDS011;31078;48.304;11.896;2023-05-10T00:10:33;4.50;;;2.08;;
45344;SDS011;31078;48.304;11.896;2023-05-10T00:12:59;6.15;;;2.08;;
45344;SDS011;31078;48.304;11.896;2023-05-10T00:15:26;6.68;;;2.78;;
45344;SDS011;31078;48.304;11.896;2023-05-10T00:17:52;7.68;;;2.60;;
45344;SDS011;31078;48.304;11.896;2023-05-10T00:20:19;7.07;;;2.72;;
45344;SDS011;31078;48.304;11.896;2023-05-10T00:22:45;7.03;;;2.75;;
45344;SDS011;31078;48.304;11.896;2023-05-10T00:25:13;7.10;;;3.10;;
45344;SDS011;31078;48.304;11.896;2023-05-10T00:27:39;6.28;;;2.80;;
45344;SDS011;31078;48.304;11.896;2023-05-10T00:30:06;8.63;;;3.38;;
45344;SDS011;31078;48.304;11.896;2023-05-10T00:32:33;3.92;;;2.65;;
45344;SDS011;31078;48.304;11.896;2023-05-10T00:35:00;6.88;;;2.55;;
45344;SDS011;31078;48.304;11.896;2023-05-10T00:37:27;5.22;;;2.95;;
45344;SDS011;31078;48.304;11.896;2023-05-10T00:39:53;5.70;;;3.35;;
45344;SDS011;31078;48.304;11.896;2023-05-10T00:42:21;6.80;;;3.58;;
45344;SDS011;31078;48.304;11.896;2023-05-10T00:44:48;5.28;;;3.00;;
45344;SDS011;31078;48.304;11.896;2023-05-10T00:47:15;4.78;;;2.90;;
45344;SDS011;31078;48.304;11.896;2023-05-10T00:49:41;6.93;;;3.00;;
45344;SDS011;31078;48.304;11.896;2023-05-10T00:52:08;4.88;;;3.00;;
45344;SDS011;31078;48.304;11.896;2023-05-10T00:54:35;5.32;;;2.72;;
45344;SDS011;31078;48.304;11.896;2023-05-10T00:57:02;3.70;;;2.85;;
45344;SDS011;31078;48.304;11.896;2023-05-10T00:59:30;4.90;;;3.15;;
45344;SDS011;31078;48.304;11.896;2023-05-10T01:01:57;4.75;;;2.95;;
45344;SDS011;31078;48.304;11.896;2023-05-10T01:04:24;5.20;;;2.95;;
45344;SDS011;31078;48.304;11.896;2023-05-10T01:06:51;4.78;;;3.33;;
45344;SDS011;31078;48.304;11.896;2023-05-10T01:09:18;6.53;;;2.95;;
45344;SDS011;31078;48.304;11.896;2023-05-10T01:11:45;6.07;;;4.07;;
45344;SDS011;31078;48.304;11.896;2023-05-10T01:14:12;5.18;;;3.15;;
45344;SDS011;31078;48.304;11.896;2023-05-10T01:16:40;4.45;;;3.08;;
45344;SDS011;31078;48.304;11.896;2023-05-10T01:19:10;4.60;;;2.90;;
45344;SDS011;31078;48.304;11.896;2023-05-10T01:21:43;4.43;;;3.08;;
45344;SDS011;31078;48.304;11.896;2023-05-10T01:24:26;6.20;;;3.50;;
45344;SDS011;31078;48.304;11.896;2023-05-10T01:27:34;7.00;;;3.25;;
45344;SDS011;31078;48.304;11.896;2023-05-10T01:33:18;5.78;;;3.42;;
45344;SDS011;31078;48.304;11.896;2023-05-10T01:35:51;4.90;;;2.78;;
45344;SDS011;31078;48.304;11.896;2023-05-10T01:38:22;4.13;;;3.15;;
45344;SDS011;31078;48.304;11.896;2023-05-10T01:40:58;5.32;;;2.85;;
45344;SDS011;31078;48.304;11.896;2023-05-10T01:43:37;7.90;;;3.40;;
45344;SDS011;31078;48.304;11.896;2023-05-10T01:46:10;4.38;;;2.20;;
45344;SDS011;31078;48.304;11.896;2023-05-10T01:48:45;4.10;;;2.53;;
45344;SDS011;31078;48.304;11.896;2023-05-10T01:51:14;5.20;;;3.15;;
45344;SDS011;31078;48.304;11.896;2023-05-10T01:53:45;6.32;;;3.22;;
45344;SDS011;31078;48.304;11.896;2023-05-10T01:56:13;6.07;;;3.05;;
45344;SDS011;31078;48.304;11.896;2023-05-10T01:58:41;12.43;;;3.10;;
45344;SDS011;31078;48.304;11.896;2023-05-10T02:01:11;5.93;;;3.00;;
45344;SDS011;31078;48.304;11.896;2023-05-10T02:03:39;7.57;;;3.17;;
45344;SDS011;31078;48.304;11.896;2023-05-10T02:06:10;11.07;;;2.90;;
45344;SDS011;31078;48.304;11.896;2023-05-10T02:08:40;16.20;;;3.13;;
45344;SDS011;31078;48.304;11.896;2023-05-10T02:11:08;15.05;;;3.28;;
45344;SDS011;31078;48.304;11.896;2023-05-10T02:13:38;13.70;;;3.47;;
45344;SDS011;31078;48.304;11.896;2023-05-10T02:16:05;15.95;;;3.28;;
45344;SDS011;31078;48.304;11.896;2023-05-10T02:18:33;14.85;;;2.90;;
45344;SDS011;31078;48.304;11.896;2023-05-10T02:21:02;15.00;;;2.72;;
45344;SDS011;31078;48.304;11.896;2023-05-10T02:23:30;19.63;;;3.05;;
45344;SDS011;31078;48.304;11.896;2023-05-10T02:25:58;8.27;;;2.33;;
45344;SDS011;31078;48.304;11.896;2023-05-10T02:28:26;10.52;;;2.28;;
45344;SDS011;31078;48.304;11.896;2023-05-10T02:30:53;10.60;;;2.47;;
45344;SDS011;31078;48.304;11.896;2023-05-10T02:33:21;6.82;;;2.30;;
45344;SDS011;31078;48.304;11.896;2023-05-10T02:35:49;8.43;;;2.10;;
45344;SDS011;31078;48.304;11.896;2023-05-10T02:38:17;14.15;;;2.75;;
45344;SDS011;31078;48.304;11.896;2023-05-10T02:40:47;12.30;;;2.50;;
45344;SDS011;31078;48.304;11.896;2023-05-10T02:43:14;21.30;;;3.03;;
45344;SDS011;31078;48.304;11.896;2023-05-10T02:45:43;2.05;;;1.13;;
45344;SDS011;31078;48.304;11.896;2023-05-10T02:48:12;10.82;;;2.53;;
45344;SDS011;31078;48.304;11.896;2023-05-10T02:50:39;9.60;;;2.20;;
45344;SDS011;31078;48.304;11.896;2023-05-10T02:53:10;7.43;;;2.53;;
45344;SDS011;31078;48.304;11.896;2023-05-10T02:55:41;5.63;;;2.10;;
45344;SDS011;31078;48.304;11.896;2023-05-10T02:58:13;5.28;;;1.98;;
45344;SDS011;31078;48.304;11.896;2023-05-10T03:00:40;4.53;;;1.92;;
45344;SDS011;31078;48.304;11.896;2023-05-10T03:03:06;5.20;;;1.98;;
45344;SDS011;31078;48.304;11.896;2023-05-10T03:05:33;8.00;;;2.20;;
45344;SDS011;31078;48.304;11.896;2023-05-10T03:07:59;4.28;;;1.80;;
45344;SDS011;31078;48.304;11.896;2023-05-10T03:10:29;5.32;;;2.20;;
45344;SDS011;31078;48.304;11.896;2023-05-10T03:13:01;4.43;;;2.17;;
45344;SDS011;31078;48.304;11.896;2023-05-10T03:15:37;3.80;;;1.65;;
45344;SDS011;31078;48.304;11.896;2023-05-10T03:18:10;3.92;;;1.85;;
45344;SDS011;31078;48.304;11.896;2023-05-10T03:20:41;4.55;;;1.90;;
45344;SDS011;31078;48.304;11.896;2023-05-10T03:23:11;3.72;;;1.90;;
45344;SDS011;31078;48.304;11.896;2023-05-10T03:25:39;4.93;;;2.25;;
45344;SDS011;31078;48.304;11.896;2023-05-10T03:28:08;4.70;;;1.80;;
45344;SDS011;31078;48.304;11.896;2023-05-10T03:30:36;4.40;;;1.90;;
45344;SDS011;31078;48.304;11.896;2023-05-10T03:33:04;4.50;;;2.35;;
45344;SDS011;31078;48.304;11.896;2023-05-10T03:35:31;7.15;;;2.50;;
45344;SDS011;31078;48.304;11.896;2023-05-10T03:37:58;3.63;;;2.05;;
45344;SDS011;31078;48.304;11.896;2023-05-10T03:40:24;4.95;;;2.25;;
45344;SDS011;31078;48.304;11.896;2023-05-10T03:42:53;4.70;;;2.10;;
45344;SDS011;31078;48.304;11.896;2023-05-10T03:45:20;3.78;;;2.17;;
45344;SDS011;31078;48.304;11.896;2023-05-10T03:47:48;5.85;;;2.20;;
45344;SDS011;31078;48.304;11.896;2023-05-10T03:50:14;3.80;;;2.05;;
45344;SDS011;31078;48.304;11.896;2023-05-10T03:52:41;2.33;;;1.50;;
45344;SDS011;31078;48.304;11.896;2023-05-10T03:55:08;6.85;;;2.00;;
45344;SDS011;31078;48.304;11.896;2023-05-10T03:57:37;5.35;;;2.30;;
45344;SDS011;31078;48.304;11.896;2023-05-10T04:00:04;3.85;;;1.92;;
45344;SDS011;31078;48.304;11.896;2023-05-10T04:02:31;4.00;;;2.40;;
45344;SDS011;31078;48.304;11.896;2023-05-10T04:04:59;2.80;;;1.95;;
45344;SDS011;31078;48.304;11.896;2023-05-10T04:07:25;2.75;;;1.75;;
45344;SDS011;31078;48.304;11.896;2023-05-10T04:09:52;5.22;;;2.08;;
45344;SDS011;31078;48.304;11.896;2023-05-10T04:12:18;2.53;;;1.75;;
45344;SDS011;31078;48.304;11.896;2023-05-10T04:14:45;2.60;;;1.80;;
45344;SDS011;31078;48.304;11.896;2023-05-10T04:17:11;2.92;;;1.85;;
45344;SDS011;31078;48.304;11.896;2023-05-10T04:19:38;3.35;;;1.90;;
45344;SDS011;31078;48.304;11.896;2023-05-10T04:22:05;4.47;;;1.65;;
45344;SDS011;31078;48.304;11.896;2023-05-10T04:24:32;4.70;;;2.13;;
45344;SDS011;31078;48.304;11.896;2023-05-10T04:26:58;4.57;;;1.88;;
45344;SDS011;31078;48.304;11.896;2023-05-10T04:29:25;3.92;;;2.03;;
45344;SDS011;31078;48.304;11.896;2023-05-10T04:31:52;4.22;;;2.22;;
45344;SDS011;31078;48.304;11.896;2023-05-10T04:34:19;3.70;;;2.05;;
45344;SDS011;31078;48.304;11.896;2023-05-10T04:36:46;3.80;;;1.90;;
45344;SDS011;31078;48.304;11.896;2023-05-10T04:39:14;4.30;;;2.42;;
45344;SDS011;31078;48.304;11.896;2023-05-10T04:41:41;5.65;;;2.00;;
45344;SDS011;31078;48.304;11.896;2023-05-10T04:44:07;2.95;;;1.95;;
45344;SDS011;31078;48.304;11.896;2023-05-10T04:46:34;5.82;;;2.85;;
45344;SDS011;31078;48.304;11.896;2023-05-10T04:49:00;2.42;;;1.75;;
45344;SDS011;31078;48.304;11.896;2023-05-10T04:51:26;3.38;;;2.17;;
45344;SDS011;31078;48.304;11.896;2023-05-10T04:53:53;3.80;;;2.30;;
45344;SDS011;31078;48.304;11.896;2023-05-10T04:56:21;3.50;;;2.10;;
45344;SDS011;31078;48.304;11.896;2023-05-10T04:58:47;4.07;;;1.70;;
45344;SDS011;31078;48.304;11.896;2023-05-10T05:01:14;4.72;;;2.25;;
45344;SDS011;31078;48.304;11.896;2023-05-10T05:03:41;5.57;;;2.58;;
45344;SDS011;31078;48.304;11.896;2023-05-10T05:06:07;4.10;;;1.95;;
45344;SDS011;31078;48.304;11.896;2023-05-10T05:08:34;4.80;;;2.30;;
45344;SDS011;31078;48.304;11.896;2023-05-10T05:11:00;3.47;;;2.08;;
45344;SDS011;31078;48.304;11.896;2023-05-10T05:13:28;3.50;;;2.15;;
45344;SDS011;31078;48.304;11.896;2023-05-10T05:15:55;4.20;;;2.10;;
45344;SDS011;31078;48.304;11.896;2023-05-10T05:18:21;3.75;;;2.22;;
45344;SDS011;31078;48.304;11.896;2023-05-10T05:20:47;3.35;;;2.13;;
45344;SDS011;31078;48.304;11.896;2023-05-10T05:23:14;3.72;;;1.90;;
45344;SDS011;31078;48.304;11.896;2023-05-10T05:25:40;3.67;;;2.05;;
45344;SDS011;31078;48.304;11.896;2023-05-10T05:28:07;2.80;;;1.70;;
45344;SDS011;31078;48.304;11.896;2023-05-10T05:30:35;3.45;;;1.77;;
45344;SDS011;31078;48.304;11.896;2023-05-10T05:33:02;3.25;;;1.40;;
45344;SDS011;31078;48.304;11.896;2023-05-10T05:35:29;3.85;;;1.83;;
45344;SDS011;31078;48.304;11.896;2023-05-10T05:37:55;2.58;;;1.50;;
45344;SDS011;31078;48.304;11.896;2023-05-10T05:40:22;2.22;;;1.30;;
45344;SDS011;31078;48.304;11.896;2023-05-10T05:42:48;3.30;;;1.75;;
45344;SDS011;31078;48.304;11.896;2023-05-10T05:45:15;3.30;;;1.85;;
45344;SDS011;31078;48.304;11.896;2023-05-10T05:47:43;5.13;;;2.13;;
45344;SDS011;31078;48.304;11.896;2023-05-10T05:50:09;2.10;;;1.30;;
45344;SDS011;31078;48.304;11.896;2023-05-10T05:52:36;3.95;;;1.55;;
45344;SDS011;31078;48.304;11.896;2023-05-10T05:55:03;3.25;;;1.85;;
45344;SDS011;31078;48.304;11.896;2023-05-10T05:57:29;3.17;;;1.67;;
45344;SDS011;31078;48.304;11.896;2023-05-10T05:59:56;3.38;;;1.65;;
45344;SDS011;31078;48.304;11.896;2023-05-10T06:02:22;8.45;;;2.60;;
45344;SDS011;31078;48.304;11.896;2023-05-10T06:04:50;2.95;;;1.42;;
45344;SDS011;31078;48.304;11.896;2023-05-10T06:07:17;3.70;;;1.40;;
45344;SDS011;31078;48.304;11.896;2023-05-10T06:09:43;2.08;;;1.10;;
45344;SDS011;31078;48.304;11.896;2023-05-10T06:12:10;2.28;;;1.25;;
45344;SDS011;31078;48.304;11.896;2023-05-10T06:14:37;3.13;;;1.60;;
45344;SDS011;31078;48.304;11.896;2023-05-10T06:17:03;2.78;;;1.50;;
45344;SDS011;31078;48.304;11.896;2023-05-10T06:19:30;3.10;;;1.73;;
45344;SDS011;31078;48.304;11.896;2023-05-10T06:21:58;2.67;;;1.35;;
45344;SDS011;31078;48.304;11.896;2023-05-10T06:24:24;1.42;;;1.10;;
45344;SDS011;31078;48.304;11.896;2023-05-10T06:26:52;2.05;;;1.38;;
45344;SDS011;31078;48.304;11.896;2023-05-10T06:29:18;2.97;;;1.50;;
45344;SDS011;31078;48.304;11.896;2023-05-10T06:31:45;3.47;;;1.52;;
45344;SDS011;31078;48.304;11.896;2023-05-10T06:34:11;3.08;;;1.70;;
45344;SDS011;31078;48.304;11.896;2023-05-10T06:36:38;4.13;;;1.52;;
45344;SDS011;31078;48.304;11.896;2023-05-10T06:39:06;2.28;;;1.58;;
45344;SDS011;31078;48.304;11.896;2023-05-10T06:41:33;1.90;;;1.50;;
45344;SDS011;31078;48.304;11.896;2023-05-10T06:43:59;3.00;;;1.40;;
45344;SDS011;31078;48.304;11.896;2023-05-10T06:46:26;1.45;;;1.30;;
45344;SDS011;31078;48.304;11.896;2023-05-10T06:48:52;2.75;;;1.70;;
45344;SDS011;31078;48.304;11.896;2023-05-10T06:51:19;2.08;;;1.52;;
45344;SDS011;31078;48.304;11.896;2023-05-10T06:53:46;1.70;;;1.33;;
45344;SDS011;31078;48.304;11.896;2023-05-10T06:56:14;3.92;;;1.80;;
45344;SDS011;31078;48.304;11.896;2023-05-10T06:58:40;2.45;;;1.73;;
45344;SDS011;31078;48.304;11.896;2023-05-10T07:01:07;2.42;;;1.80;;
45344;SDS011;31078;48.304;11.896;2023-05-10T07:03:33;1.80;;;1.60;;
45344;SDS011;31078;48.304;11.896;2023-05-10T07:06:00;3.22;;;1.83;;
45344;SDS011;31078;48.304;11.896;2023-05-10T07:08:29;2.20;;;1.83;;
45344;SDS011;31078;48.304;11.896;2023-05-10T07:10:59;3.67;;;2.40;;
45344;SDS011;31078;48.304;11.896;2023-05-10T07:13:27;2.83;;;1.80;;
45344;SDS011;31078;48.304;11.896;2023-05-10T07:15:54;2.50;;;1.90;;
45344;SDS011;31078;48.304;11.896;2023-05-10T07:18:20;2.95;;;1.50;;
45344;SDS011;31078;48.304;11.896;2023-05-10T07:20:46;1.70;;;1.20;;
45344;SDS011;31078;48.304;11.896;2023-05-10T07:23:13;2.28;;;1.60;;
45344;SDS011;31078;48.304;11.896;2023-05-10T07:25:40;2.33;;;1.33;;
45344;SDS011;31078;48.304;11.896;2023-05-10T07:28:06;3.65;;;1.70;;
45344;SDS011;31078;48.304;11.896;2023-05-10T07:30:34;3.45;;;1.75;;
45344;SDS011;31078;48.304;11.896;2023-05-10T07:33:01;2.83;;;2.08;;
45344;SDS011;31078;48.304;11.896;2023-05-10T07:35:27;2.92;;;1.70;;
45344;SDS011;31078;48.304;11.896;2023-05-10T07:37:54;6.78;;;2.60;;
45344;SDS011;31078;48.304;11.896;2023-05-10T07:40:20;3.97;;;1.80;;
45344;SDS011;31078;48.304;11.896;2023-05-10T07:42:47;3.45;;;1.70;;
45344;SDS011;31078;48.304;11.896;2023-05-10T07:45:13;3.42;;;2.13;;
45344;SDS011;31078;48.304;11.896;2023-05-10T07:47:41;3.33;;;2.30;;
45344;SDS011;31078;48.304;11.896;2023-05-10T07:50:07;4.07;;;1.80;;
45344;SDS011;31078;48.304;11.896;2023-05-10T07:52:34;4.43;;;2.58;;
45344;SDS011;31078;48.304;11.896;2023-05-10T07:55:01;4.50;;;2.22;;
45344;SDS011;31078;48.304;11.896;2023-05-10T07:57:27;5.78;;;1.77;;
45344;SDS011;31078;48.304;11.896;2023-05-10T07:59:54;4.80;;;2.50;;
45344;SDS011;31078;48.304;11.896;2023-05-10T08:02:20;4.88;;;1.95;;
45344;SDS011;31078;48.304;11.896;2023-05-10T08:04:48;3.65;;;2.30;;
45344;SDS011;31078;48.304;11.896;2023-05-10T08:07:14;3.13;;;2.30;;
45344;SDS011;31078;48.304;11.896;2023-05-10T08:09:41;5.30;;;2.13;;
45344;SDS011;31078;48.304;11.896;2023-05-10T08:12:07;4.30;;;2.33;;
45344;SDS011;31078;48.304;11.896;2023-05-10T08:14:34;3.65;;;2.55;;
45344;SDS011;31078;48.304;11.896;2023-05-10T08:17:01;2.88;;;1.92;;
45344;SDS011;31078;48.304;11.896;2023-05-10T08:19:28;4.00;;;2.25;;
45344;SDS011;31078;48.304;11.896;2023-05-10T08:21:55;2.03;;;1.70;;
45344;SDS011;31078;48.304;11.896;2023-05-10T08:24:22;3.00;;;2.13;;
45344;SDS011;31078;48.304;11.896;2023-05-10T08:26:48;2.67;;;2.03;;
45344;SDS011;31078;48.304;11.896;2023-05-10T08:29:18;2.58;;;1.90;;
45344;SDS011;31078;48.304;11.896;2023-05-10T08:31:45;5.35;;;2.10;;
45344;SDS011;31078;48.304;11.896;2023-05-10T08:34:11;3.17;;;2.30;;
45344;SDS011;31078;48.304;11.896;2023-05-10T08:36:37;4.68;;;2.33;;
45344;SDS011;31078;48.304;11.896;2023-05-10T08:39:05;3.67;;;2.10;;
45344;SDS011;31078;48.304;11.896;2023-05-10T08:41:32;2.70;;;1.98;;
45344;SDS011;31078;48.304;11.896;2023-05-10T08:43:59;4.18;;;2.55;;
45344;SDS011;31078;48.304;11.896;2023-05-10T08:46:30;4.25;;;2.50;;
45344;SDS011;31078;48.304;11.896;2023-05-10T08:48:59;3.78;;;2.20;;
45344;SDS011;31078;48.304;11.896;2023-05-10T08:51:29;4.63;;;2.58;;
45344;SDS011;31078;48.304;11.896;2023-05-10T08:54:01;4.38;;;2.90;;
45344;SDS011;31078;48.304;11.896;2023-05-10T08:56:30;2.20;;;1.90;;
45344;SDS011;31078;48.304;11.896;2023-05-10T08:58:57;3.20;;;2.10;;
45344;SDS011;31078;48.304;11.896;2023-05-10T09:01:24;2.35;;;1.60;;
45344;SDS011;31078;48.304;11.896;2023-05-10T09:03:52;6.93;;;3.30;;
45344;SDS011;31078;48.304;11.896;2023-05-10T09:06:19;4.05;;;2.60;;
45344;SDS011;31078;48.304;11.896;2023-05-10T09:08:46;3.83;;;2.40;;
45344;SDS011;31078;48.304;11.896;2023-05-10T09:11:13;5.85;;;2.92;;
45344;SDS011;31078;48.304;11.896;2023-05-10T09:13:41;7.10;;;2.13;;
45344;SDS011;31078;48.304;11.896;2023-05-10T09:16:08;2.97;;;1.50;;
45344;SDS011;31078;48.304;11.896;2023-05-10T09:18:35;5.45;;;2.13;;
45344;SDS011;31078;48.304;11.896;2023-05-10T09:21:01;11.02;;;2.65;;
45344;SDS011;31078;48.304;11.896;2023-05-10T09:23:28;6.68;;;2.10;;
45344;SDS011;31078;48.304;11.896;2023-05-10T09:26:03;5.20;;;2.35;;
45344;SDS011;31078;48.304;11.896;2023-05-10T09:28:31;4.25;;;2.13;;
45344;SDS011;31078;48.304;11.896;2023-05-10T09:30:59;5.50;;;2.08;;
45344;SDS011;31078;48.304;11.896;2023-05-10T09:33:26;2.67;;;1.80;;
45344;SDS011;31078;48.304;11.896;2023-05-10T09:35:52;4.43;;;1.65;;
45344;SDS011;31078;48.304;11.896;2023-05-10T09:38:19;2.00;;;1.45;;
45344;SDS011;31078;48.304;11.896;2023-05-10T09:40:50;2.08;;;1.33;;
45344;SDS011;31078;48.304;11.896;2023-05-10T09:43:19;3.20;;;1.50;;
45344;SDS011;31078;48.304;11.896;2023-05-10T09:45:47;5.82;;;1.48;;
45344;SDS011;31078;48.304;11.896;2023-05-10T09:48:16;3.45;;;1.30;;
45344;SDS011;31078;48.304;11.896;2023-05-10T09:50:42;2.10;;;1.30;;
45344;SDS011;31078;48.304;11.896;2023-05-10T09:53:09;1.75;;;1.20;;
45344;SDS011;31078;48.304;11.896;2023-05-10T09:55:39;2.78;;;1.60;;
45344;SDS011;31078;48.304;11.896;2023-05-10T09:58:07;3.97;;;1.67;;
45344;SDS011;31078;48.304;11.896;2023-05-10T10:00:35;2.50;;;1.52;;
45344;SDS011;31078;48.304;11.896;2023-05-10T10:03:03;5.38;;;1.60;;
45344;SDS011;31078;48.304;11.896;2023-05-10T10:05:32;6.07;;;1.60;;
45344;SDS011;31078;48.304;11.896;2023-05-10T10:08:00;4.53;;;2.63;;
45344;SDS011;31078;48.304;11.896;2023-05-10T10:10:28;2.63;;;1.30;;
45344;SDS011;31078;48.304;11.896;2023-05-10T10:12:55;3.35;;;1.50;;
45344;SDS011;31078;48.304;11.896;2023-05-10T10:15:22;2.25;;;1.63;;
45344;SDS011;31078;48.304;11.896;2023-05-10T10:17:49;3.00;;;1.10;;
45344;SDS011;31078;48.304;11.896;2023-05-10T10:20:17;1.48;;;1.17;;
45344;SDS011;31078;48.304;11.896;2023-05-10T10:22:47;4.10;;;2.03;;
45344;SDS011;31078;48.304;11.896;2023-05-10T10:25:15;4.05;;;1.50;;
45344;SDS011;31078;48.304;11.896;2023-05-10T10:27:44;2.25;;;1.65;;
45344;SDS011;31078;48.304;11.896;2023-05-10T10:30:28;4.07;;;1.73;;
45344;SDS011;31078;48.304;11.896;2023-05-10T10:33:01;2.10;;;1.40;;
45344;SDS011;31078;48.304;11.896;2023-05-10T10:35:39;5.40;;;1.30;;
45344;SDS011;31078;48.304;11.896;2023-05-10T10:38:08;3.10;;;1.50;;
45344;SDS011;31078;48.304;11.896;2023-05-10T10:40:35;2.60;;;1.67;;
45344;SDS011;31078;48.304;11.896;2023-05-10T10:46:09;2.90;;;2.35;;
45344;SDS011;31078;48.304;11.896;2023-05-10T10:48:37;4.38;;;2.50;;
45344;SDS011;31078;48.304;11.896;2023-05-10T10:51:03;14.75;;;3.10;;
45344;SDS011;31078;48.304;11.896;2023-05-10T10:53:32;8.23;;;3.35;;
45344;SDS011;31078;48.304;11.896;2023-05-10T10:56:02;3.75;;;2.75;;
45344;SDS011;31078;48.304;11.896;2023-05-10T10:58:33;4.25;;;2.35;;
45344;SDS011;31078;48.304;11.896;2023-05-10T11:01:13;2.83;;;2.08;;
45344;SDS011;31078;48.304;11.896;2023-05-10T11:03:41;4.60;;;2.10;;
45344;SDS011;31078;48.304;11.896;2023-05-10T11:06:41;4.80;;;2.30;;
45344;SDS011;31078;48.304;11.896;2023-05-10T11:09:09;3.97;;;2.42;;
45344;SDS011;31078;48.304;11.896;2023-05-10T11:11:48;3.35;;;2.20;;
45344;SDS011;31078;48.304;11.896;2023-05-10T11:14:15;3.25;;;2.38;;
45344;SDS011;31078;48.304;11.896;2023-05-10T11:16:46;3.50;;;2.63;;
45344;SDS011;31078;48.304;11.896;2023-05-10T11:19:13;3.70;;;2.20;;
45344;SDS011;31078;48.304;11.896;2023-05-10T11:21:45;5.75;;;1.70;;
45344;SDS011;31078;48.304;11.896;2023-05-10T11:24:14;2.47;;;1.65;;
45344;SDS011;31078;48.304;11.896;2023-05-10T11:26:42;2.00;;;1.58;;
45344;SDS011;31078;48.304;11.896;2023-05-10T11:29:09;4.60;;;2.10;;
45344;SDS011;31078;48.304;11.896;2023-05-10T11:31:41;3.88;;;1.73;;
45344;SDS011;31078;48.304;11.896;2023-05-10T11:34:08;3.22;;;1.67;;
45344;SDS011;31078;48.304;11.896;2023-05-10T11:36:36;3.72;;;2.28;;
45344;SDS011;31078;48.304;11.896;2023-05-10T11:39:03;4.75;;;2.00;;
45344;SDS011;31078;48.304;11.896;2023-05-10T11:41:31;7.07;;;2.33;;
45344;SDS011;31078;48.304;11.896;2023-05-10T11:43:58;5.78;;;2.47;;
45344;SDS011;31078;48.304;11.896;2023-05-10T11:46:25;3.40;;;2.10;;
45344;SDS011;31078;48.304;11.896;2023-05-10T11:48:54;5.30;;;2.50;;
45344;SDS011;31078;48.304;11.896;2023-05-10T11:51:22;4.07;;;2.40;;
45344;SDS011;31078;48.304;11.896;2023-05-10T11:53:50;4.82;;;2.10;;
45344;SDS011;31078;48.304;11.896;2023-05-10T11:56:18;2.95;;;1.90;;
45344;SDS011;31078;48.304;11.896;2023-05-10T11:58:52;6.28;;;2.65;;
45344;SDS011;31078;48.304;11.896;2023-05-10T12:01:20;6.65;;;1.77;;
45344;SDS011;31078;48.304;11.896;2023-05-10T12:03:47;8.30;;;2.78;;
45344;SDS011;31078;48.304;11.896;2023-05-10T12:06:14;9.57;;;2.83;;
45344;SDS011;31078;48.304;11.896;2023-05-10T12:08:44;6.30;;;2.30;;
45344;SDS011;31078;48.304;11.896;2023-05-10T12:11:11;5.32;;;2.17;;
45344;SDS011;31078;48.304;11.896;2023-05-10T12:13:38;4.35;;;2.35;;
45344;SDS011;31078;48.304;11.896;2023-05-10T12:16:14;5.95;;;2.28;;
45344;SDS011;31078;48.304;11.896;2023-05-10T12:18:42;7.85;;;2.20;;
45344;SDS011;31078;48.304;11.896;2023-05-10T12:21:09;5.85;;;1.98;;
45344;SDS011;31078;48.304;11.896;2023-05-10T12:23:36;6.25;;;2.08;;
45344;SDS011;31078;48.304;11.896;2023-05-10T12:26:03;4.90;;;1.60;;
45344;SDS011;31078;48.304;11.896;2023-05-10T12:28:30;6.85;;;2.00;;
45344;SDS011;31078;48.304;11.896;2023-05-10T12:30:57;5.47;;;1.58;;
45344;SDS011;31078;48.304;11.896;2023-05-10T12:33:26;7.85;;;2.42;;
45344;SDS011;31078;48.304;11.896;2023-05-10T12:35:53;7.88;;;2.25;;
45344;SDS011;31078;48.304;11.896;2023-05-10T12:38:24;5.25;;;1.95;;
45344;SDS011;31078;48.304;11.896;2023-05-10T12:40:54;7.15;;;2.20;;
45344;SDS011;31078;48.304;11.896;2023-05-10T12:43:20;5.03;;;1.92;;
45344;SDS011;31078;48.304;11.896;2023-05-10T12:45:47;13.68;;;2.53;;
45344;SDS011;31078;48.304;11.896;2023-05-10T12:48:13;11.43;;;2.40;;
45344;SDS011;31078;48.304;11.896;2023-05-10T12:50:41;6.38;;;1.67;;
45344;SDS011;31078;48.304;11.896;2023-05-10T12:53:08;2.85;;;1.50;;
45344;SDS011;31078;48.304;11.896;2023-05-10T12:55:34;7.75;;;2.28;;
45344;SDS011;31078;48.304;11.896;2023-05-10T12:58:01;9.63;;;2.38;;
45344;SDS011;31078;48.304;11.896;2023-05-10T13:00:27;7.93;;;2.05;;
45344;SDS011;31078;48.304;11.896;2023-05-10T13:02:54;7.93;;;2.65;;
45344;SDS011;31078;48.304;11.896;2023-05-10T13:05:20;5.35;;;2.13;;
45344;SDS011;31078;48.304;11.896;2023-05-10T13:07:48;5.47;;;2.40;;
45344;SDS011;31078;48.304;11.896;2023-05-10T13:10:15;7.20;;;3.08;;
45344;SDS011;31078;48.304;11.896;2023-05-10T13:12:42;6.55;;;2.80;;
45344;SDS011;31078;48.304;11.896;2023-05-10T13:15:09;5.45;;;2.33;;
45344;SDS011;31078;48.304;11.896;2023-05-10T13:17:35;6.18;;;2.25;;
45344;SDS011;31078;48.304;11.896;2023-05-10T13:20:04;8.00;;;2.35;;
45344;SDS011;31078;48.304;11.896;2023-05-10T13:22:31;5.97;;;2.70;;
45344;SDS011;31078;48.304;11.896;2023-05-10T13:24:59;5.75;;;2.75;;
45344;SDS011;31078;48.304;11.896;2023-05-10T13:27:25;3.17;;;1.98;;
45344;SDS011;31078;48.304;11.896;2023-05-10T13:29:51;5.43;;;2.08;;
45344;SDS011;31078;48.304;11.896;2023-05-10T13:32:18;5.22;;;2.92;;
45344;SDS011;31078;48.304;11.896;2023-05-10T13:34:44;6.20;;;2.80;;
45344;SDS011;31078;48.304;11.896;2023-05-10T13:37:11;7.95;;;2.70;;
45344;SDS011;31078;48.304;11.896;2023-05-10T13:39:37;7.65;;;2.90;;
45344;SDS011;31078;48.304;11.896;2023-05-10T13:42:05;4.45;;;2.60;;
45344;SDS011;31078;48.304;11.896;2023-05-10T13:44:32;3.13;;;2.08;;
45344;SDS011;31078;48.304;11.896;2023-05-10T13:46:58;2.45;;;1.73;;
45344;SDS011;31078;48.304;11.896;2023-05-10T13:49:25;4.88;;;2.33;;
45344;SDS011;31078;48.304;11.896;2023-05-10T13:51:51;5.07;;;2.70;;
45344;SDS011;31078;48.304;11.896;2023-05-10T13:54:18;5.63;;;2.33;;
45344;SDS011;31078;48.304;11.896;2023-05-10T13:56:47;2.78;;;1.63;;
45344;SDS011;31078;48.304;11.896;2023-05-10T13:59:15;3.30;;;1.77;;
45344;SDS011;31078;48.304;11.896;2023-05-10T14:01:41;3.63;;;2.13;;
45344;SDS011;31078;48.304;11.896;2023-05-10T14:04:08;3.90;;;1.90;;
45344;SDS011;31078;48.304;11.896;2023-05-10T14:06:35;2.47;;;1.40;;
45344;SDS011;31078;48.304;11.896;2023-05-10T14:09:01;2.42;;;1.35;;
45344;SDS011;31078;48.304;11.896;2023-05-10T14:11:28;1.73;;;1.30;;
45344;SDS011;31078;48.304;11.896;2023-05-10T14:13:56;2.45;;;1.50;;
45344;SDS011;31078;48.304;11.896;2023-05-10T14:16:23;2.35;;;1.48;;
45344;SDS011;31078;48.304;11.896;2023-05-10T14:18:51;1.85;;;1.15;;
45344;SDS011;31078;48.304;11.896;2023-05-10T14:21:17;3.95;;;2.00;;
45344;SDS011;31078;48.304;11.896;2023-05-10T14:23:44;2.72;;;1.33;;
45344;SDS011;31078;48.304;11.896;2023-05-10T14:26:10;2.65;;;1.30;;
45344;SDS011;31078;48.304;11.896;2023-05-10T14:28:37;2.72;;;1.30;;
45344;SDS011;31078;48.304;11.896;2023-05-10T14:31:03;2.47;;;1.60;;
45344;SDS011;31078;48.304;11.896;2023-05-10T14:33:31;1.95;;;1.42;;
45344;SDS011;31078;48.304;11.896;2023-05-10T14:35:58;3.08;;;2.00;;
45344;SDS011;31078;48.304;11.896;2023-05-10T14:38:25;6.80;;;2.33;;
45344;SDS011;31078;48.304;11.896;2023-05-10T14:40:51;5.93;;;2.40;;
45344;SDS011;31078;48.304;11.896;2023-05-10T14:43:18;3.45;;;1.88;;